Etusivu
METAR-TAF:

METAR-TAF

Lentoasemat :

Nampa, Idaho, Yhdysvallat

Leveyspiiri: 43-34-53N, Pituuspiiri: 116-31-23W, korkeus merenpinnasta: 773 m

Tämänhetkinen sää

Tämä raportti tehtiin 10 minuuttia sitten, kello 21.15 UTC
Tuuli 7 kn luoteesta
Lämpötila 13°C
Kosteus 41%
Ilmanpaine 1027 hPa
Näkyvyys: 16.1 km
selkeää

METAR: KMAN 162115Z AUTO 32007KT 10SM CLR 13/M00 A3032 RMK A01

Aika: 14:25 (21:25 UTC)


TAF: puuttuu

Säähavainnot ja -ennusteet yli 4000 lentoasemalta (METAR- ja TAF-raportit).

Käytössä olevat sääasemat on merkitty karttaan keltaisilla ja punaisilla pisteillä.

Aseta hiiri pisteen päälle nähdäksesi sääaseman nimen.

Klikkaa sitten nähdäksesi säähavainnot ja -ennusteet.

Kartan vaihtaminen: klikkaa mustalla rastilla varustettuja vihreitä pisteitä, niin voit zoomata sisään; viivalla varustettua vihreää pistettä, niin voit zoomata ulos tai vihreitä nuolia, niin pääset viereisille kartoille.


METAR-TAF: